sensor_id;sensor_type;location;lat;lon;timestamp;temperature;humidity
17571;DHT22;8903;52.220;20.978;2022-11-06T00:02:19;8.90;99.90
17571;DHT22;8903;52.220;20.978;2022-11-06T00:04:50;8.90;99.90
17571;DHT22;8903;52.220;20.978;2022-11-06T00:07:19;8.90;99.90
17571;DHT22;8903;52.220;20.978;2022-11-06T00:09:45;8.90;99.90
17571;DHT22;8903;52.220;20.978;2022-11-06T00:12:12;8.80;99.90
17571;DHT22;8903;52.220;20.978;2022-11-06T00:14:40;8.80;99.90
17571;DHT22;8903;52.220;20.978;2022-11-06T00:17:07;8.80;99.90
17571;DHT22;8903;52.220;20.978;2022-11-06T00:19:34;8.80;99.90
17571;DHT22;8903;52.220;20.978;2022-11-06T00:22:01;8.80;99.90
17571;DHT22;8903;52.220;20.978;2022-11-06T00:24:30;8.70;99.90
17571;DHT22;8903;52.220;20.978;2022-11-06T00:26:57;8.70;99.90
17571;DHT22;8903;52.220;20.978;2022-11-06T00:29:24;8.70;99.90
17571;DHT22;8903;52.220;20.978;2022-11-06T00:31:51;8.60;99.90
17571;DHT22;8903;52.220;20.978;2022-11-06T00:34:18;8.60;99.90
17571;DHT22;8903;52.220;20.978;2022-11-06T00:36:45;8.50;99.90
17571;DHT22;8903;52.220;20.978;2022-11-06T00:39:13;8.50;99.90
17571;DHT22;8903;52.220;20.978;2022-11-06T00:41:42;8.50;99.90
17571;DHT22;8903;52.220;20.978;2022-11-06T00:44:10;8.40;99.90
17571;DHT22;8903;52.220;20.978;2022-11-06T00:46:37;8.50;99.90
17571;DHT22;8903;52.220;20.978;2022-11-06T00:49:04;8.50;99.90
17571;DHT22;8903;52.220;20.978;2022-11-06T00:51:33;8.50;99.90
17571;DHT22;8903;52.220;20.978;2022-11-06T00:54:04;8.40;99.90
17571;DHT22;8903;52.220;20.978;2022-11-06T00:56:31;8.40;99.90
17571;DHT22;8903;52.220;20.978;2022-11-06T00:59:02;8.30;99.90
17571;DHT22;8903;52.220;20.978;2022-11-06T01:01:31;8.30;99.90
17571;DHT22;8903;52.220;20.978;2022-11-06T01:04:02;8.30;99.90
17571;DHT22;8903;52.220;20.978;2022-11-06T01:06:31;8.30;99.90
17571;DHT22;8903;52.220;20.978;2022-11-06T01:09:01;8.20;99.90
17571;DHT22;8903;52.220;20.978;2022-11-06T01:11:31;8.20;99.90
17571;DHT22;8903;52.220;20.978;2022-11-06T01:14:02;8.20;99.90
17571;DHT22;8903;52.220;20.978;2022-11-06T01:16:30;8.20;99.90
17571;DHT22;8903;52.220;20.978;2022-11-06T01:18:58;8.10;99.90
17571;DHT22;8903;52.220;20.978;2022-11-06T01:21:27;8.10;99.90
17571;DHT22;8903;52.220;20.978;2022-11-06T01:23:56;8.10;99.90
17571;DHT22;8903;52.220;20.978;2022-11-06T01:26:24;8.10;99.90
17571;DHT22;8903;52.220;20.978;2022-11-06T01:28:52;8.00;99.90
17571;DHT22;8903;52.220;20.978;2022-11-06T01:31:23;8.00;99.90
17571;DHT22;8903;52.220;20.978;2022-11-06T01:33:50;8.00;99.90
17571;DHT22;8903;52.220;20.978;2022-11-06T01:36:20;7.90;99.90
17571;DHT22;8903;52.220;20.978;2022-11-06T01:38:49;7.90;99.90
17571;DHT22;8903;52.220;20.978;2022-11-06T01:41:19;7.90;99.90
17571;DHT22;8903;52.220;20.978;2022-11-06T01:43:48;7.90;99.90
17571;DHT22;8903;52.220;20.978;2022-11-06T01:46:17;7.90;99.90
17571;DHT22;8903;52.220;20.978;2022-11-06T01:48:54;7.90;99.90
17571;DHT22;8903;52.220;20.978;2022-11-06T01:51:25;7.80;99.90
17571;DHT22;8903;52.220;20.978;2022-11-06T01:53:53;7.80;99.90
17571;DHT22;8903;52.220;20.978;2022-11-06T01:56:21;7.80;99.90
17571;DHT22;8903;52.220;20.978;2022-11-06T01:58:52;7.80;99.90
17571;DHT22;8903;52.220;20.978;2022-11-06T02:01:19;7.70;99.90
17571;DHT22;8903;52.220;20.978;2022-11-06T02:03:52;7.70;99.90
17571;DHT22;8903;52.220;20.978;2022-11-06T02:06:21;7.70;99.90
17571;DHT22;8903;52.220;20.978;2022-11-06T02:08:51;7.60;99.90
17571;DHT22;8903;52.220;20.978;2022-11-06T02:11:18;7.60;99.90
17571;DHT22;8903;52.220;20.978;2022-11-06T02:14:02;7.60;99.90
17571;DHT22;8903;52.220;20.978;2022-11-06T02:16:38;7.50;99.90
17571;DHT22;8903;52.220;20.978;2022-11-06T02:19:41;7.50;99.90
17571;DHT22;8903;52.220;20.978;2022-11-06T02:22:25;7.50;99.90
17571;DHT22;8903;52.220;20.978;2022-11-06T02:25:13;7.50;99.90
17571;DHT22;8903;52.220;20.978;2022-11-06T02:27:52;7.50;99.90
17571;DHT22;8903;52.220;20.978;2022-11-06T02:30:21;7.40;99.90
17571;DHT22;8903;52.220;20.978;2022-11-06T02:32:54;7.40;99.90
17571;DHT22;8903;52.220;20.978;2022-11-06T02:35:26;7.40;99.90
17571;DHT22;8903;52.220;20.978;2022-11-06T02:38:00;7.40;99.90
17571;DHT22;8903;52.220;20.978;2022-11-06T02:40:30;7.30;99.90
17571;DHT22;8903;52.220;20.978;2022-11-06T02:43:02;7.30;99.90
17571;DHT22;8903;52.220;20.978;2022-11-06T02:45:33;7.30;99.90
17571;DHT22;8903;52.220;20.978;2022-11-06T02:48:03;7.30;99.90
17571;DHT22;8903;52.220;20.978;2022-11-06T02:50:37;7.30;99.90
17571;DHT22;8903;52.220;20.978;2022-11-06T02:53:07;7.20;99.90
17571;DHT22;8903;52.220;20.978;2022-11-06T02:55:38;7.20;99.90
17571;DHT22;8903;52.220;20.978;2022-11-06T02:58:12;7.20;99.90
17571;DHT22;8903;52.220;20.978;2022-11-06T03:00:41;7.20;99.90
17571;DHT22;8903;52.220;20.978;2022-11-06T03:03:17;7.20;99.90
17571;DHT22;8903;52.220;20.978;2022-11-06T03:05:52;7.20;99.90
17571;DHT22;8903;52.220;20.978;2022-11-06T03:08:26;7.20;99.90
17571;DHT22;8903;52.220;20.978;2022-11-06T03:11:05;7.20;99.90
17571;DHT22;8903;52.220;20.978;2022-11-06T03:13:45;7.20;99.90
17571;DHT22;8903;52.220;20.978;2022-11-06T03:16:21;7.20;99.90
17571;DHT22;8903;52.220;20.978;2022-11-06T03:18:56;7.10;99.90
17571;DHT22;8903;52.220;20.978;2022-11-06T03:21:31;7.10;99.90
17571;DHT22;8903;52.220;20.978;2022-11-06T03:24:05;7.10;99.90
17571;DHT22;8903;52.220;20.978;2022-11-06T03:26:36;7.10;99.90
17571;DHT22;8903;52.220;20.978;2022-11-06T03:29:09;7.10;99.90
17571;DHT22;8903;52.220;20.978;2022-11-06T03:31:46;7.00;99.90
17571;DHT22;8903;52.220;20.978;2022-11-06T03:34:19;7.10;99.90
17571;DHT22;8903;52.220;20.978;2022-11-06T03:36:53;7.00;99.90
17571;DHT22;8903;52.220;20.978;2022-11-06T03:39:27;7.00;99.90
17571;DHT22;8903;52.220;20.978;2022-11-06T03:42:01;6.90;99.90
17571;DHT22;8903;52.220;20.978;2022-11-06T03:44:34;6.90;99.90
17571;DHT22;8903;52.220;20.978;2022-11-06T03:47:09;6.90;99.90
17571;DHT22;8903;52.220;20.978;2022-11-06T03:49:40;6.80;99.90
17571;DHT22;8903;52.220;20.978;2022-11-06T03:52:13;6.80;99.90
17571;DHT22;8903;52.220;20.978;2022-11-06T03:54:46;6.70;99.90
17571;DHT22;8903;52.220;20.978;2022-11-06T03:57:18;6.70;99.90
17571;DHT22;8903;52.220;20.978;2022-11-06T03:59:51;6.70;99.90
17571;DHT22;8903;52.220;20.978;2022-11-06T04:02:20;6.60;99.90
17571;DHT22;8903;52.220;20.978;2022-11-06T04:04:51;6.60;99.90
17571;DHT22;8903;52.220;20.978;2022-11-06T04:07:22;6.60;99.90
17571;DHT22;8903;52.220;20.978;2022-11-06T04:09:53;6.50;99.90
17571;DHT22;8903;52.220;20.978;2022-11-06T04:12:41;6.50;99.90
17571;DHT22;8903;52.220;20.978;2022-11-06T04:15:31;6.40;99.90
17571;DHT22;8903;52.220;20.978;2022-11-06T04:17:58;6.40;99.90
17571;DHT22;8903;52.220;20.978;2022-11-06T04:20:32;6.40;99.90
17571;DHT22;8903;52.220;20.978;2022-11-06T04:23:26;6.40;99.90
17571;DHT22;8903;52.220;20.978;2022-11-06T04:26:04;6.40;99.90
17571;DHT22;8903;52.220;20.978;2022-11-06T04:28:55;6.40;99.90
17571;DHT22;8903;52.220;20.978;2022-11-06T04:31:32;6.40;99.90
17571;DHT22;8903;52.220;20.978;2022-11-06T04:34:07;6.40;99.90
17571;DHT22;8903;52.220;20.978;2022-11-06T04:36:42;6.40;99.90
17571;DHT22;8903;52.220;20.978;2022-11-06T04:39:16;6.30;99.90
17571;DHT22;8903;52.220;20.978;2022-11-06T04:41:49;6.30;99.90
17571;DHT22;8903;52.220;20.978;2022-11-06T04:44:24;6.40;99.90
17571;DHT22;8903;52.220;20.978;2022-11-06T04:46:56;6.30;99.90
17571;DHT22;8903;52.220;20.978;2022-11-06T04:49:26;6.30;99.90
17571;DHT22;8903;52.220;20.978;2022-11-06T04:51:57;6.30;99.90
17571;DHT22;8903;52.220;20.978;2022-11-06T04:54:25;6.30;99.90
17571;DHT22;8903;52.220;20.978;2022-11-06T04:56:57;6.30;99.90
17571;DHT22;8903;52.220;20.978;2022-11-06T04:59:26;6.20;99.90
17571;DHT22;8903;52.220;20.978;2022-11-06T05:01:55;6.20;99.90
17571;DHT22;8903;52.220;20.978;2022-11-06T05:04:22;6.20;99.90
17571;DHT22;8903;52.220;20.978;2022-11-06T05:06:48;6.20;99.90
17571;DHT22;8903;52.220;20.978;2022-11-06T05:09:16;6.10;99.90
17571;DHT22;8903;52.220;20.978;2022-11-06T05:11:43;6.10;99.90
17571;DHT22;8903;52.220;20.978;2022-11-06T05:14:10;6.10;99.90
17571;DHT22;8903;52.220;20.978;2022-11-06T05:16:39;6.00;99.90
17571;DHT22;8903;52.220;20.978;2022-11-06T05:19:08;6.00;99.90
17571;DHT22;8903;52.220;20.978;2022-11-06T05:21:35;6.00;99.90
17571;DHT22;8903;52.220;20.978;2022-11-06T05:24:20;6.00;99.90
17571;DHT22;8903;52.220;20.978;2022-11-06T05:26:46;6.00;99.90
17571;DHT22;8903;52.220;20.978;2022-11-06T05:29:14;6.00;99.90
17571;DHT22;8903;52.220;20.978;2022-11-06T05:31:40;6.00;99.90
17571;DHT22;8903;52.220;20.978;2022-11-06T05:34:09;6.00;99.90
17571;DHT22;8903;52.220;20.978;2022-11-06T05:36:36;6.00;99.90
17571;DHT22;8903;52.220;20.978;2022-11-06T05:39:04;5.90;99.90
17571;DHT22;8903;52.220;20.978;2022-11-06T05:41:31;5.90;99.90
17571;DHT22;8903;52.220;20.978;2022-11-06T05:43:58;5.90;99.90
17571;DHT22;8903;52.220;20.978;2022-11-06T05:46:25;5.80;99.90
17571;DHT22;8903;52.220;20.978;2022-11-06T05:48:52;5.80;99.90
17571;DHT22;8903;52.220;20.978;2022-11-06T05:51:23;5.70;99.90
17571;DHT22;8903;52.220;20.978;2022-11-06T05:53:51;5.70;99.90
17571;DHT22;8903;52.220;20.978;2022-11-06T05:56:18;5.70;99.90
17571;DHT22;8903;52.220;20.978;2022-11-06T05:58:47;5.70;99.90
17571;DHT22;8903;52.220;20.978;2022-11-06T06:01:14;5.60;99.90
17571;DHT22;8903;52.220;20.978;2022-11-06T06:03:41;5.60;99.90
17571;DHT22;8903;52.220;20.978;2022-11-06T06:06:08;5.50;99.90
17571;DHT22;8903;52.220;20.978;2022-11-06T06:08:37;5.50;99.90
17571;DHT22;8903;52.220;20.978;2022-11-06T06:11:05;5.40;99.90
17571;DHT22;8903;52.220;20.978;2022-11-06T06:13:34;5.40;99.90
17571;DHT22;8903;52.220;20.978;2022-11-06T06:16:05;5.40;99.90
17571;DHT22;8903;52.220;20.978;2022-11-06T06:18:32;5.30;99.90
17571;DHT22;8903;52.220;20.978;2022-11-06T06:20:59;5.40;99.90
17571;DHT22;8903;52.220;20.978;2022-11-06T06:23:28;5.40;99.90
17571;DHT22;8903;52.220;20.978;2022-11-06T06:25:56;5.30;99.90
17571;DHT22;8903;52.220;20.978;2022-11-06T06:28:24;5.30;99.90
17571;DHT22;8903;52.220;20.978;2022-11-06T06:30:50;5.40;99.90
17571;DHT22;8903;52.220;20.978;2022-11-06T06:33:24;5.50;99.90
17571;DHT22;8903;52.220;20.978;2022-11-06T06:35:50;5.50;99.90
17571;DHT22;8903;52.220;20.978;2022-11-06T06:38:18;5.50;99.90
17571;DHT22;8903;52.220;20.978;2022-11-06T06:40:45;5.50;99.90
17571;DHT22;8903;52.220;20.978;2022-11-06T06:43:13;5.50;99.90
17571;DHT22;8903;52.220;20.978;2022-11-06T06:45:40;5.50;99.90
17571;DHT22;8903;52.220;20.978;2022-11-06T06:48:07;5.60;99.90
17571;DHT22;8903;52.220;20.978;2022-11-06T06:50:34;5.70;99.90
17571;DHT22;8903;52.220;20.978;2022-11-06T06:53:06;5.70;99.90
17571;DHT22;8903;52.220;20.978;2022-11-06T06:55:33;5.80;99.90
17571;DHT22;8903;52.220;20.978;2022-11-06T06:58:00;5.80;99.90
17571;DHT22;8903;52.220;20.978;2022-11-06T07:00:32;5.90;99.90
17571;DHT22;8903;52.220;20.978;2022-11-06T07:03:00;5.90;99.90
17571;DHT22;8903;52.220;20.978;2022-11-06T07:05:34;5.90;99.90
17571;DHT22;8903;52.220;20.978;2022-11-06T07:08:05;5.90;99.90
17571;DHT22;8903;52.220;20.978;2022-11-06T07:10:33;5.90;99.90
17571;DHT22;8903;52.220;20.978;2022-11-06T07:13:01;6.00;99.90
17571;DHT22;8903;52.220;20.978;2022-11-06T07:15:31;6.00;99.90
17571;DHT22;8903;52.220;20.978;2022-11-06T07:18:00;6.10;99.90
17571;DHT22;8903;52.220;20.978;2022-11-06T07:20:31;6.10;99.90
17571;DHT22;8903;52.220;20.978;2022-11-06T07:23:08;6.00;99.90
17571;DHT22;8903;52.220;20.978;2022-11-06T07:25:38;6.10;99.90
17571;DHT22;8903;52.220;20.978;2022-11-06T07:28:08;6.10;99.90
17571;DHT22;8903;52.220;20.978;2022-11-06T07:30:46;6.00;99.90
17571;DHT22;8903;52.220;20.978;2022-11-06T07:33:15;6.10;99.90
17571;DHT22;8903;52.220;20.978;2022-11-06T07:35:46;6.20;99.90
17571;DHT22;8903;52.220;20.978;2022-11-06T07:38:14;6.30;99.90
17571;DHT22;8903;52.220;20.978;2022-11-06T07:40:42;6.30;99.90
17571;DHT22;8903;52.220;20.978;2022-11-06T07:43:11;6.30;99.90
17571;DHT22;8903;52.220;20.978;2022-11-06T07:45:38;6.30;99.90
17571;DHT22;8903;52.220;20.978;2022-11-06T07:48:06;6.30;99.90
17571;DHT22;8903;52.220;20.978;2022-11-06T07:50:36;6.40;99.90
17571;DHT22;8903;52.220;20.978;2022-11-06T07:53:03;6.40;99.90
17571;DHT22;8903;52.220;20.978;2022-11-06T07:55:31;6.50;99.90
17571;DHT22;8903;52.220;20.978;2022-11-06T07:57:58;6.30;99.90
17571;DHT22;8903;52.220;20.978;2022-11-06T08:00:25;6.40;99.90
17571;DHT22;8903;52.220;20.978;2022-11-06T08:02:52;6.40;99.90
17571;DHT22;8903;52.220;20.978;2022-11-06T08:05:22;6.50;99.90
17571;DHT22;8903;52.220;20.978;2022-11-06T08:07:55;6.40;99.90
17571;DHT22;8903;52.220;20.978;2022-11-06T08:10:25;6.30;99.90
17571;DHT22;8903;52.220;20.978;2022-11-06T08:12:53;6.40;99.90
17571;DHT22;8903;52.220;20.978;2022-11-06T08:15:29;6.40;99.90
17571;DHT22;8903;52.220;20.978;2022-11-06T08:18:00;6.50;99.90
17571;DHT22;8903;52.220;20.978;2022-11-06T08:20:29;6.50;99.90
17571;DHT22;8903;52.220;20.978;2022-11-06T08:23:04;6.50;99.90
17571;DHT22;8903;52.220;20.978;2022-11-06T08:25:32;6.50;99.90
17571;DHT22;8903;52.220;20.978;2022-11-06T08:28:01;6.60;99.90
17571;DHT22;8903;52.220;20.978;2022-11-06T08:30:29;6.60;99.90
17571;DHT22;8903;52.220;20.978;2022-11-06T08:33:00;6.70;99.90
17571;DHT22;8903;52.220;20.978;2022-11-06T08:35:29;6.70;99.90
17571;DHT22;8903;52.220;20.978;2022-11-06T08:37:56;6.70;99.90
17571;DHT22;8903;52.220;20.978;2022-11-06T08:40:23;6.80;99.90
17571;DHT22;8903;52.220;20.978;2022-11-06T08:42:50;6.80;99.90
17571;DHT22;8903;52.220;20.978;2022-11-06T08:45:17;6.90;99.90
17571;DHT22;8903;52.220;20.978;2022-11-06T08:47:44;6.90;99.90
17571;DHT22;8903;52.220;20.978;2022-11-06T08:50:11;7.00;99.90
17571;DHT22;8903;52.220;20.978;2022-11-06T08:52:42;7.00;99.90
17571;DHT22;8903;52.220;20.978;2022-11-06T08:55:09;7.10;99.90
17571;DHT22;8903;52.220;20.978;2022-11-06T08:57:37;7.30;99.90
17571;DHT22;8903;52.220;20.978;2022-11-06T09:00:05;7.30;99.90
17571;DHT22;8903;52.220;20.978;2022-11-06T09:02:33;7.40;99.90
17571;DHT22;8903;52.220;20.978;2022-11-06T09:05:01;7.50;99.90
17571;DHT22;8903;52.220;20.978;2022-11-06T09:07:37;7.60;99.90
17571;DHT22;8903;52.220;20.978;2022-11-06T09:10:06;7.60;99.90
17571;DHT22;8903;52.220;20.978;2022-11-06T09:12:34;7.60;99.90
17571;DHT22;8903;52.220;20.978;2022-11-06T09:15:01;7.70;99.90
17571;DHT22;8903;52.220;20.978;2022-11-06T09:17:28;8.00;99.90
17571;DHT22;8903;52.220;20.978;2022-11-06T09:19:55;8.20;99.90
17571;DHT22;8903;52.220;20.978;2022-11-06T09:22:22;8.40;99.90
17571;DHT22;8903;52.220;20.978;2022-11-06T09:24:49;8.40;99.90
17571;DHT22;8903;52.220;20.978;2022-11-06T09:27:17;8.40;99.90
17571;DHT22;8903;52.220;20.978;2022-11-06T09:29:44;8.50;99.90
17571;DHT22;8903;52.220;20.978;2022-11-06T09:32:12;8.60;99.90
17571;DHT22;8903;52.220;20.978;2022-11-06T09:34:39;8.60;99.90
17571;DHT22;8903;52.220;20.978;2022-11-06T09:37:06;8.60;99.90
17571;DHT22;8903;52.220;20.978;2022-11-06T09:39:37;8.60;99.90
17571;DHT22;8903;52.220;20.978;2022-11-06T09:42:09;8.50;99.90
17571;DHT22;8903;52.220;20.978;2022-11-06T09:44:48;8.30;99.90
17571;DHT22;8903;52.220;20.978;2022-11-06T09:47:19;8.30;99.90
17571;DHT22;8903;52.220;20.978;2022-11-06T09:49:50;8.20;99.90
17571;DHT22;8903;52.220;20.978;2022-11-06T09:52:28;8.30;99.90
17571;DHT22;8903;52.220;20.978;2022-11-06T09:55:00;8.40;99.90
17571;DHT22;8903;52.220;20.978;2022-11-06T09:57:37;8.40;99.90
17571;DHT22;8903;52.220;20.978;2022-11-06T10:00:11;8.30;99.90
17571;DHT22;8903;52.220;20.978;2022-11-06T10:02:47;8.10;99.90
17571;DHT22;8903;52.220;20.978;2022-11-06T10:05:23;8.00;99.90
17571;DHT22;8903;52.220;20.978;2022-11-06T10:07:56;8.10;99.90
17571;DHT22;8903;52.220;20.978;2022-11-06T10:10:29;8.20;99.90
17571;DHT22;8903;52.220;20.978;2022-11-06T10:13:18;8.30;99.90
17571;DHT22;8903;52.220;20.978;2022-11-06T10:15:53;8.50;99.90
17571;DHT22;8903;52.220;20.978;2022-11-06T10:18:32;8.50;99.90
17571;DHT22;8903;52.220;20.978;2022-11-06T10:21:07;8.40;99.90
17571;DHT22;8903;52.220;20.978;2022-11-06T10:23:43;8.20;99.90
17571;DHT22;8903;52.220;20.978;2022-11-06T10:26:14;8.20;99.90
17571;DHT22;8903;52.220;20.978;2022-11-06T10:31:53;8.00;99.90
17571;DHT22;8903;52.220;20.978;2022-11-06T10:34:26;8.00;99.90
17571;DHT22;8903;52.220;20.978;2022-11-06T10:37:02;8.00;99.90
17571;DHT22;8903;52.220;20.978;2022-11-06T10:39:32;8.10;99.90
17571;DHT22;8903;52.220;20.978;2022-11-06T10:42:03;8.10;99.90
17571;DHT22;8903;52.220;20.978;2022-11-06T10:44:37;8.10;99.90
17571;DHT22;8903;52.220;20.978;2022-11-06T10:47:18;8.00;99.90
17571;DHT22;8903;52.220;20.978;2022-11-06T10:49:47;8.00;99.90
17571;DHT22;8903;52.220;20.978;2022-11-06T10:52:27;8.40;99.90
17571;DHT22;8903;52.220;20.978;2022-11-06T10:55:11;8.60;99.90
17571;DHT22;8903;52.220;20.978;2022-11-06T10:57:44;8.70;99.90
17571;DHT22;8903;52.220;20.978;2022-11-06T11:00:18;8.70;99.90
17571;DHT22;8903;52.220;20.978;2022-11-06T11:02:49;8.90;99.90
17571;DHT22;8903;52.220;20.978;2022-11-06T11:05:19;9.00;99.90
17571;DHT22;8903;52.220;20.978;2022-11-06T11:07:50;9.00;99.90
17571;DHT22;8903;52.220;20.978;2022-11-06T11:10:28;9.00;99.90
17571;DHT22;8903;52.220;20.978;2022-11-06T11:12:57;9.20;99.90
17571;DHT22;8903;52.220;20.978;2022-11-06T11:15:26;9.30;99.90
17571;DHT22;8903;52.220;20.978;2022-11-06T11:18:17;9.20;99.90
17571;DHT22;8903;52.220;20.978;2022-11-06T11:20:48;9.20;99.90
17571;DHT22;8903;52.220;20.978;2022-11-06T11:23:22;9.10;99.90
17571;DHT22;8903;52.220;20.978;2022-11-06T11:28:47;9.70;99.90
17571;DHT22;8903;52.220;20.978;2022-11-06T11:31:27;10.40;99.90
17571;DHT22;8903;52.220;20.978;2022-11-06T11:33:58;10.60;99.90
17571;DHT22;8903;52.220;20.978;2022-11-06T11:36:47;10.60;99.90
17571;DHT22;8903;52.220;20.978;2022-11-06T11:39:16;10.60;99.90
17571;DHT22;8903;52.220;20.978;2022-11-06T11:41:47;10.60;99.90
17571;DHT22;8903;52.220;20.978;2022-11-06T11:44:15;10.70;99.90
17571;DHT22;8903;52.220;20.978;2022-11-06T11:46:47;10.80;99.90
17571;DHT22;8903;52.220;20.978;2022-11-06T11:49:28;10.90;99.90
17571;DHT22;8903;52.220;20.978;2022-11-06T11:51:57;11.00;99.90
17571;DHT22;8903;52.220;20.978;2022-11-06T11:54:27;11.10;99.90
17571;DHT22;8903;52.220;20.978;2022-11-06T11:56:57;11.20;99.90
17571;DHT22;8903;52.220;20.978;2022-11-06T11:59:28;11.50;99.90
17571;DHT22;8903;52.220;20.978;2022-11-06T12:02:01;11.70;99.90
17571;DHT22;8903;52.220;20.978;2022-11-06T12:04:38;11.90;99.90
17571;DHT22;8903;52.220;20.978;2022-11-06T12:07:22;12.10;99.90
17571;DHT22;8903;52.220;20.978;2022-11-06T12:09:50;12.60;99.90
17571;DHT22;8903;52.220;20.978;2022-11-06T12:12:20;13.00;99.90
17571;DHT22;8903;52.220;20.978;2022-11-06T12:15:03;14.30;99.90
17571;DHT22;8903;52.220;20.978;2022-11-06T12:17:38;15.40;99.90
17571;DHT22;8903;52.220;20.978;2022-11-06T12:20:15;16.50;99.90
17571;DHT22;8903;52.220;20.978;2022-11-06T12:22:45;17.40;99.90
17571;DHT22;8903;52.220;20.978;2022-11-06T12:25:15;17.60;99.90
17571;DHT22;8903;52.220;20.978;2022-11-06T12:27:48;17.50;99.90
17571;DHT22;8903;52.220;20.978;2022-11-06T12:30:18;17.20;99.90
17571;DHT22;8903;52.220;20.978;2022-11-06T12:33:00;17.20;99.90
17571;DHT22;8903;52.220;20.978;2022-11-06T12:35:32;17.10;99.90
17571;DHT22;8903;52.220;20.978;2022-11-06T12:38:10;16.70;99.90
17571;DHT22;8903;52.220;20.978;2022-11-06T12:40:40;16.50;99.90
17571;DHT22;8903;52.220;20.978;2022-11-06T12:43:21;16.10;99.90
17571;DHT22;8903;52.220;20.978;2022-11-06T12:46:12;15.60;99.90
17571;DHT22;8903;52.220;20.978;2022-11-06T12:48:57;15.50;99.90
17571;DHT22;8903;52.220;20.978;2022-11-06T12:51:37;15.90;99.90
17571;DHT22;8903;52.220;20.978;2022-11-06T12:54:23;16.20;99.90
17571;DHT22;8903;52.220;20.978;2022-11-06T12:56:58;16.60;99.90
17571;DHT22;8903;52.220;20.978;2022-11-06T12:59:36;16.90;99.90
17571;DHT22;8903;52.220;20.978;2022-11-06T13:02:21;17.10;99.90
17571;DHT22;8903;52.220;20.978;2022-11-06T13:04:54;17.00;99.90
17571;DHT22;8903;52.220;20.978;2022-11-06T13:07:52;16.00;99.90
17571;DHT22;8903;52.220;20.978;2022-11-06T13:10:32;15.00;99.90
17571;DHT22;8903;52.220;20.978;2022-11-06T13:13:18;14.30;99.90
17571;DHT22;8903;52.220;20.978;2022-11-06T13:15:55;13.60;99.90
17571;DHT22;8903;52.220;20.978;2022-11-06T13:18:31;13.00;99.90
17571;DHT22;8903;52.220;20.978;2022-11-06T13:21:04;12.50;99.90
17571;DHT22;8903;52.220;20.978;2022-11-06T13:23:38;12.10;99.90
17571;DHT22;8903;52.220;20.978;2022-11-06T13:26:32;11.70;99.90
17571;DHT22;8903;52.220;20.978;2022-11-06T13:29:02;11.50;99.90
17571;DHT22;8903;52.220;20.978;2022-11-06T13:31:39;11.30;99.90
17571;DHT22;8903;52.220;20.978;2022-11-06T13:34:11;11.10;99.90
17571;DHT22;8903;52.220;20.978;2022-11-06T13:36:40;11.00;99.90
17571;DHT22;8903;52.220;20.978;2022-11-06T13:39:14;10.90;99.90
17571;DHT22;8903;52.220;20.978;2022-11-06T13:41:43;10.80;99.90
17571;DHT22;8903;52.220;20.978;2022-11-06T13:44:11;10.70;99.90
17571;DHT22;8903;52.220;20.978;2022-11-06T13:46:50;10.60;99.90
17571;DHT22;8903;52.220;20.978;2022-11-06T13:49:25;10.60;99.90
17571;DHT22;8903;52.220;20.978;2022-11-06T13:51:56;10.50;99.90
17571;DHT22;8903;52.220;20.978;2022-11-06T13:54:36;10.50;99.90
17571;DHT22;8903;52.220;20.978;2022-11-06T13:57:31;10.40;99.90
17571;DHT22;8903;52.220;20.978;2022-11-06T14:00:16;10.40;99.90
17571;DHT22;8903;52.220;20.978;2022-11-06T14:03:08;10.30;99.90
17571;DHT22;8903;52.220;20.978;2022-11-06T14:05:48;10.30;99.90
17571;DHT22;8903;52.220;20.978;2022-11-06T14:08:22;10.20;99.90
17571;DHT22;8903;52.220;20.978;2022-11-06T14:10:57;10.10;99.90
17571;DHT22;8903;52.220;20.978;2022-11-06T14:13:31;10.10;99.90
17571;DHT22;8903;52.220;20.978;2022-11-06T14:16:05;10.00;99.90
17571;DHT22;8903;52.220;20.978;2022-11-06T14:18:33;9.90;99.90
17571;DHT22;8903;52.220;20.978;2022-11-06T14:21:26;9.90;99.90
17571;DHT22;8903;52.220;20.978;2022-11-06T14:23:54;9.90;99.90
17571;DHT22;8903;52.220;20.978;2022-11-06T14:26:40;9.80;99.90
17571;DHT22;8903;52.220;20.978;2022-11-06T14:32:37;9.70;99.90
17571;DHT22;8903;52.220;20.978;2022-11-06T14:44:27;9.50;99.90
17571;DHT22;8903;52.220;20.978;2022-11-06T14:46:57;9.40;99.90
17571;DHT22;8903;52.220;20.978;2022-11-06T14:49:36;9.40;99.90
17571;DHT22;8903;52.220;20.978;2022-11-06T14:52:07;9.30;99.90
17571;DHT22;8903;52.220;20.978;2022-11-06T14:54:38;9.20;99.90
17571;DHT22;8903;52.220;20.978;2022-11-06T14:57:07;9.10;99.90
17571;DHT22;8903;52.220;20.978;2022-11-06T14:59:38;9.10;99.90
17571;DHT22;8903;52.220;20.978;2022-11-06T15:02:15;9.00;99.90
17571;DHT22;8903;52.220;20.978;2022-11-06T15:04:47;8.90;99.90
17571;DHT22;8903;52.220;20.978;2022-11-06T15:07:34;8.90;99.90
17571;DHT22;8903;52.220;20.978;2022-11-06T15:10:49;8.80;99.90
17571;DHT22;8903;52.220;20.978;2022-11-06T15:13:25;8.80;99.90
17571;DHT22;8903;52.220;20.978;2022-11-06T15:16:00;8.70;99.90
17571;DHT22;8903;52.220;20.978;2022-11-06T15:18:29;8.60;99.90
17571;DHT22;8903;52.220;20.978;2022-11-06T15:21:01;8.50;99.90
17571;DHT22;8903;52.220;20.978;2022-11-06T15:23:33;8.50;99.90
17571;DHT22;8903;52.220;20.978;2022-11-06T15:26:12;8.40;99.90
17571;DHT22;8903;52.220;20.978;2022-11-06T15:28:44;8.40;99.90
17571;DHT22;8903;52.220;20.978;2022-11-06T15:31:15;8.30;99.90
17571;DHT22;8903;52.220;20.978;2022-11-06T15:33:55;8.30;99.90
17571;DHT22;8903;52.220;20.978;2022-11-06T15:36:25;8.20;99.90
17571;DHT22;8903;52.220;20.978;2022-11-06T15:38:54;8.10;99.90
17571;DHT22;8903;52.220;20.978;2022-11-06T15:41:23;8.00;99.90
17571;DHT22;8903;52.220;20.978;2022-11-06T15:43:52;8.00;99.90
17571;DHT22;8903;52.220;20.978;2022-11-06T15:46:24;8.00;99.90
17571;DHT22;8903;52.220;20.978;2022-11-06T15:49:14;7.90;99.90
17571;DHT22;8903;52.220;20.978;2022-11-06T15:51:50;7.90;99.90
17571;DHT22;8903;52.220;20.978;2022-11-06T15:54:33;7.80;99.90
17571;DHT22;8903;52.220;20.978;2022-11-06T15:57:03;7.80;99.90
17571;DHT22;8903;52.220;20.978;2022-11-06T15:59:31;7.80;99.90
17571;DHT22;8903;52.220;20.978;2022-11-06T16:02:03;7.80;99.90
17571;DHT22;8903;52.220;20.978;2022-11-06T16:04:31;7.70;99.90
17571;DHT22;8903;52.220;20.978;2022-11-06T16:07:00;7.70;99.90
17571;DHT22;8903;52.220;20.978;2022-11-06T16:09:30;7.60;99.90
17571;DHT22;8903;52.220;20.978;2022-11-06T16:11:58;7.50;99.90
17571;DHT22;8903;52.220;20.978;2022-11-06T16:14:25;7.50;99.90
17571;DHT22;8903;52.220;20.978;2022-11-06T16:16:53;7.40;99.90
17571;DHT22;8903;52.220;20.978;2022-11-06T16:19:26;7.40;99.90
17571;DHT22;8903;52.220;20.978;2022-11-06T16:21:57;7.40;99.90
17571;DHT22;8903;52.220;20.978;2022-11-06T16:24:28;7.40;99.90
17571;DHT22;8903;52.220;20.978;2022-11-06T16:26:56;7.40;99.90
17571;DHT22;8903;52.220;20.978;2022-11-06T16:29:25;7.40;99.90
17571;DHT22;8903;52.220;20.978;2022-11-06T16:32:02;7.40;99.90
17571;DHT22;8903;52.220;20.978;2022-11-06T16:34:36;7.50;99.90